x

Cape San Martin - 55nm West Nw Of Morro Bay, Ca (46028) Wave Buoy

5:50am - Sat 25th Apr 2015 All times are PDT. -7 hours from GMT.

  • Sig Wave height 5.6ft
  • Swell Direction
  • Peak Period 15s
  • Average Period 8s
  • Wind
    18mph, 20mph gusts
  • Sea Temp 55°f
  • Air Temp 57°f
  • Sea Pressure 1014.4mb
  • Cape San Martin - 55nm West Nw Of Morro Bay, Ca
  • Cape San Martin - 55nm West Nw Of Morro Bay, Ca

More Historic Weather Station data

Upgrade to MSW Pro to gain access to the past 30 days of data for over 8000 Wavebouys and Weather Stations around the globe.

Join Pro

Comparision Forecast

View Surf forecast
   
Sat 04/25 5:50am 5.5ft 15s 8s 18 20 mph 1014.4mb 55f 57f
4:50am 6ft 15s 9s 13
mph
1014.9mb 55f 57f
3:50am  -   -   -  7 9 mph 1015.3mb 55f 57f
2:50am 5.5ft 16s 8s 2 4 mph 1016.1mb 55f 55f
1:50am 5ft 16s 7s 4 7 mph 1016.7mb 56f 56f
12:50am 4.5ft 11s 7s 9 11 mph 1017mb 56f 56f
Fri 04/24 11:50pm 5ft 16s 7s 13 16 mph 1017.1mb 55f 56f
10:50pm 4.5ft 17s 6s 16 18 mph 1017.3mb 55f 56f
9:50pm 4.5ft 15s 5s 13 16 mph 1017.7mb 54f 55f
8:50pm  -   -   -  16 18 mph 1017.2mb 54f 55f
7:50pm 5ft 10s 6s 18 22 mph 1016.9mb 54f 55f
6:50pm 5ft 11s 5s 18 22 mph 1016.8mb 55f 55f
5:50pm  -   -   -  18 20 mph 1016.4mb 55f 55f
4:50pm 5ft 10s 6s 18 22 mph 1016.5mb 55f 55f
3:50pm 5ft 10s 5s 22 27 mph 1016.4mb 55f 55f
2:50pm 5ft 11s 5s 20 25 mph 1017mb 56f 55f
1:50pm  -   -   -  18 22 mph 1017.1mb 56f 55f
12:50pm 5ft 11s 6s 18 20 mph 1017.5mb 56f 55f
11:50am 5.5ft 10s 6s 18 20 mph 1017.5mb 57f 55f
10:50am 5.5ft 9s 6s 16 18 mph 1017.4mb 56f 55f
9:50am 6ft 8s 6s 16 20 mph 1017mb 56f 55f
8:50am 6.5ft 9s 6s 13 16 mph 1016.4mb 55f 55f
7:50am 7ft 9s 7s 16 20 mph 1015.5mb 55f 55f
6:50am 7.5ft 10s 7s 13 18 mph 1014.9mb 55f 55f
5:50am 8ft 10s 7s 18 20 mph 1014.3mb 55f 55f
4:50am 8ft 9s 7s 18 20 mph 1014.2mb 55f 55f
3:50am 8ft 10s 7s 18 22 mph 1014.2mb 55f 55f
2:50am 7.5ft 10s 7s 18 22 mph 1014.1mb 56f 54f
1:50am 6ft 11s 7s 22 29 mph 1014.3mb 56f 55f
12:50am 6.5ft 10s 7s 18 22 mph 1014.4mb 56f 55f
Thu 04/23 11:50pm 7.5ft 11s 7s 16 18 mph 1014.4mb 55f 55f
10:50pm 8ft 11s 7s 18 22 mph 1014.2mb 55f 55f
9:50pm 8ft 11s 7s 18 20 mph 1014.1mb 55f 54f
8:50pm 8.5ft 11s 7s 20 27 mph 1013.6mb 55f 54f
7:50pm 9ft 11s 7s 20 27 mph 1013mb 55f 53f
6:50pm 8.5ft 11s 7s 20 25 mph 1012.9mb 55f 54f
5:50pm 8ft 11s 8s 18 25 mph 1012.8mb 56f 54f
4:50pm 7ft 11s 7s 18 22 mph 1012.9mb 56f 54f
3:50pm 7ft 12s 7s 16 18 mph 1013.3mb 56f 54f
2:50pm 7.5ft 11s 7s 13 18 mph 1013.6mb 56f 54f
1:50pm 7ft 12s 8s 13 18 mph 1014.1mb 56f 53f
12:50pm 8ft 12s 8s 13 16 mph 1014.3mb 56f 53f
11:50am 8.5ft 12s 8s 13 16 mph 1014.6mb 56f 53f
10:50am 9ft 12s 8s 13 18 mph 1014.3mb 56f 53f
9:50am 10ft 12s 8s 16 18 mph 1014.1mb 56f 53f
8:50am  -   -   -  16 22 mph 1013.8mb 56f 53f
7:50am 10.5ft 12s 8s 16 20 mph 1013.5mb 56f 53f
6:50am 12ft 11s 9s 16 18 mph 1012.9mb 56f 54f
5:50am 11ft 11s 8s 13 18 mph 1012.5mb 56f 53f
4:50am 10ft 12s 8s 13 18 mph 1012.4mb 56f 53f
3:50am 10ft 12s 8s 13 18 mph 1012.2mb 56f 52f
2:50am 10.5ft 11s 8s 13 18 mph 1012.3mb 56f 52f
1:50am 11.5ft 12s 9s 11 16 mph 1012.5mb 56f 53f
12:50am 10ft 11s 8s 11 16 mph 1012.7mb 56f 52f
Wed 04/22 11:50pm 10.5ft 12s 9s 13 16 mph 1013mb 57f 53f
10:50pm 11.5ft 12s 10s 7 9 mph 1013mb 57f 53f
9:50pm 10.5ft 12s 9s 11 16 mph 1012.9mb 56f 54f
8:50pm 10ft 11s 9s 7 11 mph 1012.7mb 56f 53f
7:50pm 10ft 12s 9s 7 11 mph 1012.6mb 56f 53f
6:50pm 11.5ft 12s 9s 9 11 mph 1012.6mb 56f 53f
5:50pm 11ft 12s 9s 9 13 mph 1013mb 56f 53f
4:50pm 11ft 14s 9s 9 11 mph 1013mb 56f 53f
3:50pm 10ft 11s 9s 9 11 mph 1012.8mb 56f 53f
2:50pm 10ft 14s 9s 9 11 mph 1013.2mb 56f 53f
1:50pm 9.5ft 13s 9s 9 11 mph 1013.6mb 56f 53f
12:50pm 9.5ft 13s 9s 11 13 mph 1013.9mb 56f 53f
11:50am 10.5ft 13s 9s 9 13 mph 1014.3mb 56f 52f
10:50am 10ft 11s 8s 11 16 mph 1013.8mb 56f 53f
9:50am 9.5ft 11s 8s 11 16 mph 1013.8mb 56f 52f
8:50am 10.5ft 11s 8s 13 18 mph 1013.4mb 56f 52f
7:50am 9.5ft 11s 8s 16 20 mph 1013mb 56f 52f
6:50am 9.5ft 10s 8s 18 22 mph 1012.6mb 56f 53f
5:50am 8ft 9s 8s 18 20 mph 1012.1mb 56f 53f
4:50am 8ft 11s 8s 13 16 mph 1012.2mb 56f 53f
3:50am 7ft 11s 8s 16 18 mph 1012.3mb 56f 53f
2:50am 6ft 15s 8s 13 18 mph 1012mb 56f 53f
1:50am 6ft 15s 9s 11 13 mph 1012.1mb 56f 54f
12:50am 7ft 12s 9s 13 16 mph 1012.4mb 56f 54f
Tue 04/21 11:50pm 6ft 15s 9s 7 9 mph 1012.8mb 56f 55f
10:50pm 6ft 12s 9s 7 11 mph 1013.1mb 57f 55f
9:50pm 5.5ft 12s 9s 9 11 mph 1013.1mb 57f 55f
8:50pm 5ft 13s 9s 9 11 mph 1013.1mb 57f 55f
7:50pm 5ft 13s 8s 9 11 mph 1012.7mb 57f 55f
6:50pm 5.5ft 13s 9s 9 11 mph 1012.7mb 57f 55f
5:50pm  -   -   -  7 9 mph 1012.5mb 57f 54f
4:50pm 5ft 13s 8s 4 7 mph 1012.8mb 57f 54f
3:50pm 5.5ft 14s 9s  -  2 mph 1013.1mb 57f 54f
2:50pm 5.5ft 14s 10s 4
mph
1013.5mb 57f 55f
1:50pm 5.5ft 14s 10s 4 7 mph 1013.8mb 57f 55f